createdAt,value
2023-01-19T00:00:00.296Z,1.83
2023-01-19T00:02:26.718Z,1.86
2023-01-19T00:04:53.189Z,1.89
2023-01-19T00:07:19.565Z,1.91
2023-01-19T00:09:46.100Z,1.93
2023-01-19T00:12:12.461Z,1.94
2023-01-19T00:14:38.935Z,1.93
2023-01-19T00:17:05.426Z,1.93
2023-01-19T00:19:32.064Z,1.91
2023-01-19T00:21:58.425Z,1.92
2023-01-19T00:24:24.826Z,1.92
2023-01-19T00:26:51.318Z,1.95
2023-01-19T00:29:17.765Z,1.97
2023-01-19T00:31:44.629Z,1.93
2023-01-19T00:34:11.196Z,1.86
2023-01-19T00:36:37.636Z,1.75
2023-01-19T00:39:04.249Z,1.66
2023-01-19T00:41:49.414Z,1.61
2023-01-19T00:44:15.785Z,1.57
2023-01-19T00:46:42.221Z,1.58
2023-01-19T00:49:09.084Z,1.57
2023-01-19T00:51:35.450Z,1.62
2023-01-19T00:54:04.936Z,1.64
2023-01-19T00:56:32.255Z,1.72
2023-01-19T00:58:58.647Z,1.75
2023-01-19T01:01:45.283Z,1.77
2023-01-19T01:04:13.667Z,1.78
2023-01-19T01:06:40.335Z,1.81
2023-01-19T01:09:11.874Z,1.83
2023-01-19T01:11:42.553Z,1.82
2023-01-19T01:14:11.465Z,1.80
2023-01-19T01:16:38.310Z,1.79
2023-01-19T01:19:04.914Z,1.78
2023-01-19T01:21:31.628Z,1.72
2023-01-19T01:23:58.043Z,1.67
2023-01-19T01:26:26.970Z,1.57
2023-01-19T01:28:53.505Z,1.56
2023-01-19T01:31:20.078Z,1.49
2023-01-19T01:33:46.583Z,1.45
2023-01-19T01:36:13.000Z,1.45
2023-01-19T01:38:40.804Z,1.44
2023-01-19T01:41:08.223Z,1.44
2023-01-19T01:43:54.040Z,1.47
2023-01-19T01:46:20.752Z,1.48
2023-01-19T01:48:57.054Z,1.50
2023-01-19T01:51:37.458Z,1.55
2023-01-19T01:54:18.932Z,1.59
2023-01-19T01:56:48.137Z,1.64
2023-01-19T01:59:25.655Z,1.67
2023-01-19T02:02:12.255Z,1.73
2023-01-19T02:04:43.289Z,1.76
2023-01-19T02:07:32.750Z,1.80
2023-01-19T02:10:17.543Z,1.84
2023-01-19T02:13:03.153Z,1.88
2023-01-19T02:15:29.820Z,1.90
2023-01-19T02:17:58.404Z,1.92
2023-01-19T02:20:28.417Z,1.92
2023-01-19T02:22:56.995Z,1.93
2023-01-19T02:25:25.176Z,1.95
2023-01-19T02:27:52.825Z,2.00
2023-01-19T02:30:19.752Z,2.05
2023-01-19T02:32:46.301Z,2.11
2023-01-19T02:35:12.981Z,2.20
2023-01-19T02:37:41.381Z,2.30
2023-01-19T02:40:15.211Z,2.38
2023-01-19T02:42:54.052Z,2.44
2023-01-19T02:45:22.609Z,2.47
2023-01-19T02:47:51.437Z,2.46
2023-01-19T02:50:37.403Z,2.45
2023-01-19T02:53:21.237Z,2.44
2023-01-19T02:55:56.963Z,2.41
2023-01-19T02:58:34.305Z,2.41
2023-01-19T03:01:16.527Z,2.39
2023-01-19T03:03:56.011Z,2.39
2023-01-19T03:06:42.986Z,2.43
2023-01-19T03:09:29.439Z,2.43
2023-01-19T03:12:14.131Z,2.43
2023-01-19T03:14:46.156Z,2.43
2023-01-19T03:17:14.938Z,2.42
2023-01-19T03:19:43.482Z,2.42
2023-01-19T03:22:17.616Z,2.42
2023-01-19T03:24:47.764Z,2.44
2023-01-19T03:27:40.770Z,2.44
2023-01-19T03:30:18.593Z,2.43
2023-01-19T03:32:50.660Z,2.45
2023-01-19T03:35:19.576Z,2.44
2023-01-19T03:37:50.593Z,2.44
2023-01-19T03:40:17.398Z,2.41
2023-01-19T03:42:44.914Z,2.40
2023-01-19T03:45:13.085Z,2.38
2023-01-19T03:47:40.046Z,2.36
2023-01-19T03:50:13.769Z,2.33
2023-01-19T03:52:40.118Z,2.30
2023-01-19T03:55:07.050Z,2.29
2023-01-19T03:57:33.467Z,2.23
2023-01-19T03:59:59.988Z,2.20
2023-01-19T04:02:26.492Z,2.17
2023-01-19T04:04:52.900Z,2.14
2023-01-19T04:07:19.391Z,2.07
2023-01-19T04:09:45.953Z,2.02
2023-01-19T04:12:12.306Z,1.99
2023-01-19T04:14:38.668Z,1.96
2023-01-19T04:17:05.042Z,1.89
2023-01-19T04:19:31.737Z,1.80
2023-01-19T04:21:58.194Z,1.78
2023-01-19T04:24:24.597Z,1.74
2023-01-19T04:26:53.227Z,1.72
2023-01-19T04:29:19.711Z,1.66
2023-01-19T04:31:46.062Z,1.64
2023-01-19T04:34:12.459Z,1.60
2023-01-19T04:36:38.821Z,1.59
2023-01-19T04:39:05.189Z,1.58
2023-01-19T04:41:31.787Z,1.58
2023-01-19T04:43:58.211Z,1.58
2023-01-19T04:46:24.816Z,1.56
2023-01-19T04:48:54.034Z,1.55
2023-01-19T04:51:20.660Z,1.54
2023-01-19T04:53:47.062Z,1.54
2023-01-19T04:56:13.507Z,1.53
2023-01-19T04:58:40.105Z,1.52
2023-01-19T05:01:09.708Z,1.52
2023-01-19T05:03:36.200Z,1.51
2023-01-19T05:06:02.649Z,1.52
2023-01-19T05:08:29.174Z,1.52
2023-01-19T05:10:57.569Z,1.53
2023-01-19T05:13:24.080Z,1.56
2023-01-19T05:15:50.604Z,1.56
2023-01-19T05:18:17.294Z,1.56
2023-01-19T05:20:43.860Z,1.59
2023-01-19T05:23:10.385Z,1.62
2023-01-19T05:25:36.826Z,1.65
2023-01-19T05:28:03.953Z,1.69
2023-01-19T05:30:30.517Z,1.70
2023-01-19T05:32:56.909Z,1.71
2023-01-19T05:35:35.317Z,1.73
2023-01-19T05:38:02.460Z,1.75
2023-01-19T05:40:28.933Z,1.78
2023-01-19T05:42:55.357Z,1.80
2023-01-19T05:45:21.907Z,1.82
2023-01-19T05:47:48.250Z,1.82
2023-01-19T05:50:14.909Z,1.85
2023-01-19T05:52:41.432Z,1.88
2023-01-19T05:55:08.310Z,1.90
2023-01-19T05:57:34.964Z,1.91
2023-01-19T06:00:01.438Z,1.91
2023-01-19T06:02:30.076Z,1.91
2023-01-19T06:04:56.902Z,1.90
2023-01-19T06:07:25.118Z,1.89
2023-01-19T06:09:52.024Z,1.86
2023-01-19T06:12:18.568Z,1.85
2023-01-19T06:14:45.246Z,1.83
2023-01-19T06:17:11.605Z,1.82
2023-01-19T06:19:38.006Z,1.80
2023-01-19T06:22:04.380Z,1.81
2023-01-19T06:24:30.732Z,1.83
2023-01-19T06:26:57.199Z,1.86
2023-01-19T06:29:23.923Z,1.88
2023-01-19T06:31:50.487Z,1.90
2023-01-19T06:34:16.879Z,1.89
2023-01-19T06:36:43.289Z,1.91
2023-01-19T06:39:10.539Z,1.92
2023-01-19T06:41:36.903Z,1.94
2023-01-19T06:44:03.425Z,1.96
2023-01-19T06:46:32.216Z,1.96
2023-01-19T06:48:58.577Z,1.96
2023-01-19T06:51:25.520Z,1.96
2023-01-19T06:53:51.966Z,1.95
2023-01-19T06:56:18.604Z,1.91
2023-01-19T06:58:47.633Z,1.92
2023-01-19T07:01:14.445Z,1.89
2023-01-19T07:03:40.892Z,1.84
2023-01-19T07:06:07.515Z,1.79
2023-01-19T07:08:35.392Z,1.74
2023-01-19T07:11:25.180Z,1.69
2023-01-19T07:13:54.441Z,1.63
2023-01-19T07:16:20.934Z,1.57
2023-01-19T07:18:48.453Z,1.52
2023-01-19T07:21:15.372Z,1.46
2023-01-19T07:23:43.237Z,1.41
2023-01-19T07:26:10.244Z,1.41
2023-01-19T07:28:37.254Z,1.35
2023-01-19T07:31:04.032Z,1.30
2023-01-19T07:33:30.639Z,1.22
2023-01-19T07:35:57.329Z,1.25
2023-01-19T07:38:23.747Z,1.25
2023-01-19T07:40:50.282Z,1.26
2023-01-19T07:43:17.038Z,1.26
2023-01-19T07:45:44.876Z,1.26
2023-01-19T07:48:11.501Z,1.27
2023-01-19T07:50:38.055Z,1.32
2023-01-19T07:53:05.925Z,1.36
2023-01-19T07:55:32.636Z,1.37
2023-01-19T07:57:59.071Z,1.37
2023-01-19T08:00:25.877Z,1.37
2023-01-19T08:02:53.766Z,1.37
2023-01-19T08:05:20.915Z,1.36
2023-01-19T08:07:48.289Z,1.31
2023-01-19T08:10:16.304Z,1.29
2023-01-19T08:12:42.992Z,1.26
2023-01-19T08:15:10.562Z,1.21
2023-01-19T08:17:37.086Z,1.20
2023-01-19T08:20:03.982Z,1.20
2023-01-19T08:22:30.471Z,1.19
2023-01-19T08:24:56.833Z,1.16
2023-01-19T08:27:23.229Z,1.13
2023-01-19T08:29:49.777Z,1.10
2023-01-19T08:32:16.481Z,1.10
2023-01-19T08:34:42.999Z,1.13
2023-01-19T08:37:09.513Z,1.15
2023-01-19T08:39:36.037Z,1.19
2023-01-19T08:42:02.598Z,1.22
2023-01-19T08:44:28.991Z,1.24
2023-01-19T08:46:55.418Z,1.26
2023-01-19T08:49:21.992Z,1.31
2023-01-19T08:51:48.990Z,1.39
2023-01-19T08:54:18.523Z,1.46
2023-01-19T08:56:45.161Z,1.53
2023-01-19T08:59:13.068Z,1.62
2023-01-19T09:01:41.303Z,1.71
2023-01-19T09:04:07.895Z,1.83
2023-01-19T09:06:34.425Z,1.92
2023-01-19T09:09:00.980Z,2.00
2023-01-19T09:11:27.677Z,2.14
2023-01-19T09:13:54.209Z,2.24
2023-01-19T09:16:20.788Z,2.30
2023-01-19T09:18:47.203Z,2.38
2023-01-19T09:21:15.039Z,2.47
2023-01-19T09:23:41.473Z,2.54
2023-01-19T09:26:07.832Z,2.58
2023-01-19T09:28:34.619Z,2.60
2023-01-19T09:31:06.242Z,2.60
2023-01-19T09:33:33.133Z,2.63
2023-01-19T09:35:59.679Z,2.61
2023-01-19T09:38:26.953Z,2.62
2023-01-19T09:40:55.954Z,2.75
2023-01-19T09:43:49.518Z,2.85
2023-01-19T09:46:29.948Z,2.95
2023-01-19T09:48:59.671Z,3.05
2023-01-19T09:51:28.666Z,3.12
2023-01-19T09:54:16.692Z,3.21
2023-01-19T09:56:45.217Z,3.29
2023-01-19T09:59:20.276Z,3.41
2023-01-19T10:02:14.527Z,3.47
2023-01-19T10:05:05.027Z,3.54
2023-01-19T10:08:03.910Z,3.61
2023-01-19T10:10:40.323Z,3.67
2023-01-19T10:13:29.107Z,3.75
2023-01-19T10:16:20.350Z,3.80
2023-01-19T10:18:54.808Z,3.90
2023-01-19T10:21:33.491Z,3.92
2023-01-19T10:24:23.140Z,3.98
2023-01-19T10:26:56.812Z,4.03
2023-01-19T10:29:38.490Z,4.11
2023-01-19T10:32:19.689Z,4.20
2023-01-19T10:34:47.589Z,4.28
2023-01-19T10:37:18.307Z,4.33
2023-01-19T10:39:54.164Z,4.35
2023-01-19T10:42:20.813Z,4.40
2023-01-19T10:44:47.249Z,4.45
2023-01-19T10:47:19.026Z,4.53
2023-01-19T10:49:47.063Z,4.59
2023-01-19T10:52:33.950Z,4.64
2023-01-19T10:55:03.062Z,4.70
2023-01-19T10:57:39.426Z,4.69
2023-01-19T11:00:27.111Z,4.73
2023-01-19T11:02:53.923Z,4.76
2023-01-19T11:05:25.893Z,4.80
2023-01-19T11:07:52.298Z,4.86
2023-01-19T11:10:24.803Z,4.90
2023-01-19T11:13:04.036Z,4.94
2023-01-19T11:15:43.253Z,5.04
2023-01-19T11:18:42.790Z,5.05
2023-01-19T11:21:11.562Z,5.09
2023-01-19T11:23:46.334Z,5.07
2023-01-19T11:26:24.210Z,4.97
2023-01-19T11:28:54.742Z,4.83
2023-01-19T11:31:27.470Z,4.71
2023-01-19T11:33:57.168Z,4.58
2023-01-19T11:36:25.051Z,4.61
2023-01-19T11:38:56.859Z,4.63
2023-01-19T11:41:28.700Z,4.60
2023-01-19T11:43:58.857Z,4.57
2023-01-19T11:46:32.925Z,4.52
2023-01-19T11:49:04.658Z,4.46
2023-01-19T11:51:39.019Z,4.44
2023-01-19T11:54:21.123Z,4.38
2023-01-19T11:56:49.142Z,4.30
2023-01-19T11:59:15.644Z,4.24
2023-01-19T12:01:50.737Z,4.20
2023-01-19T12:04:24.725Z,4.21
2023-01-19T12:06:54.764Z,4.28
2023-01-19T12:09:21.374Z,4.44
2023-01-19T12:11:58.283Z,4.44
2023-01-19T12:14:47.620Z,4.32
2023-01-19T12:17:19.710Z,4.21
2023-01-19T12:19:55.255Z,4.09
2023-01-19T12:22:23.797Z,3.98
2023-01-19T12:25:06.658Z,3.88
2023-01-19T12:27:42.208Z,3.78
2023-01-19T12:30:29.308Z,3.70
2023-01-19T12:33:21.241Z,3.63
2023-01-19T12:36:04.485Z,3.54
2023-01-19T12:38:50.105Z,3.47
2023-01-19T12:41:27.576Z,3.49
2023-01-19T12:44:12.415Z,3.52
2023-01-19T12:46:42.132Z,3.49
2023-01-19T12:49:29.203Z,3.53
2023-01-19T12:52:11.587Z,3.53
2023-01-19T12:54:43.597Z,3.61
2023-01-19T12:57:37.934Z,3.83
2023-01-19T13:00:27.268Z,4.15
2023-01-19T13:03:20.446Z,4.28
2023-01-19T13:05:53.280Z,4.33
2023-01-19T13:08:22.622Z,4.37
2023-01-19T13:11:09.540Z,4.39
2023-01-19T13:13:37.368Z,4.40
2023-01-19T13:16:18.566Z,4.47
2023-01-19T13:18:49.249Z,4.63
2023-01-19T13:21:30.926Z,4.78
2023-01-19T13:24:05.422Z,4.82
2023-01-19T13:26:35.600Z,4.85
2023-01-19T13:29:14.014Z,4.92
2023-01-19T13:31:42.719Z,4.99
2023-01-19T13:34:14.473Z,4.98
2023-01-19T13:36:44.912Z,5.02
2023-01-19T13:39:18.812Z,5.04
2023-01-19T13:41:47.347Z,4.94
2023-01-19T13:44:23.898Z,4.80
2023-01-19T13:46:51.947Z,4.70
2023-01-19T13:49:26.016Z,4.62
2023-01-19T13:52:24.852Z,4.53
2023-01-19T13:55:02.878Z,4.46
2023-01-19T13:57:32.017Z,4.43
2023-01-19T14:00:07.167Z,4.39
2023-01-19T14:02:34.288Z,4.32
2023-01-19T14:05:22.603Z,4.25
2023-01-19T14:08:03.404Z,4.16
2023-01-19T14:10:31.274Z,4.08
2023-01-19T14:13:02.390Z,4.04
2023-01-19T14:15:29.624Z,3.99
2023-01-19T14:18:24.591Z,3.95
2023-01-19T14:21:03.267Z,3.93
2023-01-19T14:23:49.857Z,3.89
2023-01-19T14:26:56.163Z,3.85
2023-01-19T14:29:26.658Z,3.81
2023-01-19T14:32:11.947Z,3.79
2023-01-19T14:34:45.796Z,3.75
2023-01-19T14:37:21.188Z,3.73
2023-01-19T14:39:55.950Z,3.73
2023-01-19T14:42:37.559Z,3.71
2023-01-19T14:45:16.056Z,3.71
2023-01-19T14:47:45.703Z,3.72
2023-01-19T14:50:20.584Z,3.71
2023-01-19T14:52:54.493Z,3.67
2023-01-19T14:55:25.529Z,3.66
2023-01-19T14:57:51.960Z,3.67
2023-01-19T15:00:20.040Z,3.66
2023-01-19T15:02:47.361Z,3.64
2023-01-19T15:05:28.972Z,3.59
2023-01-19T15:07:55.421Z,3.58
2023-01-19T15:10:23.882Z,3.54
2023-01-19T15:12:52.418Z,3.50
2023-01-19T15:15:25.677Z,3.48
2023-01-19T15:17:54.121Z,3.46
2023-01-19T15:20:23.023Z,3.40
2023-01-19T15:22:49.868Z,3.38
2023-01-19T15:25:19.245Z,3.32
2023-01-19T15:27:47.084Z,3.28
2023-01-19T15:30:21.033Z,3.25
2023-01-19T15:32:47.656Z,3.23
2023-01-19T15:35:19.112Z,3.21
2023-01-19T15:37:45.894Z,3.14
2023-01-19T15:40:13.699Z,3.08
2023-01-19T15:42:40.143Z,3.02
2023-01-19T15:45:41.554Z,2.95
2023-01-19T15:48:10.329Z,2.89
2023-01-19T15:50:39.686Z,2.80
2023-01-19T15:53:06.844Z,2.71
2023-01-19T15:55:33.439Z,2.63
2023-01-19T15:58:03.366Z,2.52
2023-01-19T16:00:34.561Z,2.41
2023-01-19T16:03:01.751Z,2.33
2023-01-19T16:05:41.929Z,2.25
2023-01-19T16:08:10.222Z,2.19
2023-01-19T16:10:36.711Z,2.05
2023-01-19T16:13:04.154Z,1.93
2023-01-19T16:15:30.674Z,1.79
2023-01-19T16:17:57.172Z,1.65
2023-01-19T16:20:23.795Z,1.57
2023-01-19T16:22:50.222Z,1.47
2023-01-19T16:25:16.693Z,1.35
2023-01-19T16:27:43.108Z,1.27
2023-01-19T16:30:12.461Z,1.22
2023-01-19T16:32:39.104Z,1.12
2023-01-19T16:35:06.077Z,1.07
2023-01-19T16:37:32.576Z,1.03
2023-01-19T16:39:59.217Z,0.98
2023-01-19T16:42:25.648Z,0.93
2023-01-19T16:44:52.150Z,0.87
2023-01-19T16:47:18.660Z,0.86
2023-01-19T16:49:45.291Z,0.86
2023-01-19T16:52:11.928Z,0.80
2023-01-19T16:54:42.771Z,0.73
2023-01-19T16:57:09.937Z,0.64
2023-01-19T16:59:37.127Z,0.53
2023-01-19T17:02:03.566Z,0.49
2023-01-19T17:04:30.088Z,0.49
2023-01-19T17:06:56.575Z,0.43
2023-01-19T17:09:23.029Z,0.39
2023-01-19T17:11:49.506Z,0.38
2023-01-19T17:14:20.312Z,0.32
2023-01-19T17:16:47.519Z,0.28
2023-01-19T17:19:17.306Z,0.21
2023-01-19T17:21:48.853Z,0.09
2023-01-19T17:24:16.195Z,0.03
2023-01-19T17:26:45.871Z,-0.04
2023-01-19T17:29:12.779Z,-0.10
2023-01-19T17:31:39.290Z,-0.17
2023-01-19T17:34:05.751Z,-0.18
2023-01-19T17:36:32.999Z,-0.17
2023-01-19T17:39:03.902Z,-0.17
2023-01-19T17:41:33.283Z,-0.22
2023-01-19T17:44:01.099Z,-0.30
2023-01-19T17:46:29.198Z,-0.33
2023-01-19T17:48:58.060Z,-0.39
2023-01-19T17:51:25.775Z,-0.41
2023-01-19T17:53:53.264Z,-0.45
2023-01-19T17:56:23.175Z,-0.48
2023-01-19T17:58:50.038Z,-0.52
2023-01-19T18:01:19.257Z,-0.50
2023-01-19T18:03:46.657Z,-0.50
2023-01-19T18:06:13.555Z,-0.51
2023-01-19T18:08:41.999Z,-0.52
2023-01-19T18:11:09.695Z,-0.49
2023-01-19T18:13:37.249Z,-0.46
2023-01-19T18:16:13.688Z,-0.41
2023-01-19T18:18:40.705Z,-0.39
2023-01-19T18:21:10.053Z,-0.36
2023-01-19T18:23:36.798Z,-0.34
2023-01-19T18:26:07.602Z,-0.31
2023-01-19T18:28:34.810Z,-0.26
2023-01-19T18:31:01.851Z,-0.22
2023-01-19T18:33:29.190Z,-0.19
2023-01-19T18:35:55.581Z,-0.16
2023-01-19T18:38:22.349Z,-0.11
2023-01-19T18:40:48.913Z,-0.06
2023-01-19T18:43:15.380Z,-0.03
2023-01-19T18:45:42.066Z,0.00
2023-01-19T18:48:09.443Z,0.04
2023-01-19T18:50:37.654Z,0.07
2023-01-19T18:53:04.095Z,0.10
2023-01-19T18:55:30.566Z,0.11
2023-01-19T18:57:57.004Z,0.12
2023-01-19T19:00:23.406Z,0.16
2023-01-19T19:02:49.811Z,0.18
2023-01-19T19:05:16.326Z,0.20
2023-01-19T19:07:42.706Z,0.22
2023-01-19T19:10:09.875Z,0.22
2023-01-19T19:12:36.305Z,0.24
2023-01-19T19:15:02.856Z,0.27
2023-01-19T19:17:29.243Z,0.30
2023-01-19T19:19:55.739Z,0.32
2023-01-19T19:22:24.160Z,0.39
2023-01-19T19:24:51.811Z,0.45
2023-01-19T19:27:18.184Z,0.48
2023-01-19T19:29:48.767Z,0.51
2023-01-19T19:32:20.182Z,0.54
2023-01-19T19:34:50.107Z,0.59
2023-01-19T19:37:16.812Z,0.62
2023-01-19T19:39:43.425Z,0.66
2023-01-19T19:42:09.795Z,0.69
2023-01-19T19:44:36.352Z,0.71
2023-01-19T19:47:02.743Z,0.75
2023-01-19T19:49:29.333Z,0.76
2023-01-19T19:51:56.055Z,0.77
2023-01-19T19:54:22.455Z,0.79
2023-01-19T19:56:51.898Z,0.80
2023-01-19T19:59:18.382Z,0.85
2023-01-19T20:01:47.063Z,0.89
2023-01-19T20:04:14.102Z,0.88
2023-01-19T20:06:44.427Z,0.84
2023-01-19T20:09:15.680Z,0.82
2023-01-19T20:11:46.682Z,0.83
2023-01-19T20:14:14.552Z,0.85
2023-01-19T20:16:41.091Z,0.84
2023-01-19T20:19:07.831Z,0.84
2023-01-19T20:21:38.878Z,0.85
2023-01-19T20:24:08.247Z,0.85
2023-01-19T20:26:38.842Z,0.83
2023-01-19T20:29:10.205Z,0.83
2023-01-19T20:31:43.482Z,0.83
2023-01-19T20:34:12.109Z,0.83
2023-01-19T20:36:38.685Z,0.81
2023-01-19T20:39:10.165Z,0.78
2023-01-19T20:41:46.178Z,0.76
2023-01-19T20:44:16.012Z,0.71
2023-01-19T20:46:43.574Z,0.68
2023-01-19T20:49:10.251Z,0.70
2023-01-19T20:51:39.593Z,0.74
2023-01-19T20:54:06.076Z,0.74
2023-01-19T20:56:32.528Z,0.77
2023-01-19T20:58:59.595Z,0.79
2023-01-19T21:01:26.336Z,0.78
2023-01-19T21:03:52.921Z,0.78
2023-01-19T21:06:21.000Z,0.76
2023-01-19T21:08:49.994Z,0.77
2023-01-19T21:11:20.694Z,0.76
2023-01-19T21:13:48.391Z,0.75
2023-01-19T21:16:15.509Z,0.73
2023-01-19T21:18:41.911Z,0.70
2023-01-19T21:21:14.949Z,0.67
2023-01-19T21:23:47.657Z,0.68
2023-01-19T21:26:14.601Z,0.67
2023-01-19T21:28:41.084Z,0.64
2023-01-19T21:31:09.788Z,0.61
2023-01-19T21:33:36.279Z,0.60
2023-01-19T21:36:02.959Z,0.58
2023-01-19T21:38:29.995Z,0.56
2023-01-19T21:40:57.827Z,0.53
2023-01-19T21:43:26.408Z,0.48
2023-01-19T21:45:53.010Z,0.45
2023-01-19T21:48:19.864Z,0.39
2023-01-19T21:50:46.511Z,0.37
2023-01-19T21:53:13.026Z,0.34
2023-01-19T21:55:44.654Z,0.30
2023-01-19T21:58:11.032Z,0.28
2023-01-19T22:00:37.637Z,0.24
2023-01-19T22:03:04.831Z,0.21
2023-01-19T22:05:36.864Z,0.18
2023-01-19T22:08:04.221Z,0.14
2023-01-19T22:10:30.751Z,0.10
2023-01-19T22:12:57.126Z,0.08
2023-01-19T22:15:23.548Z,0.06
2023-01-19T22:17:49.999Z,0.06
2023-01-19T22:20:16.883Z,0.04
2023-01-19T22:22:43.439Z,0.05
2023-01-19T22:25:10.232Z,0.06
2023-01-19T22:27:37.436Z,0.08
2023-01-19T22:30:04.354Z,0.08
2023-01-19T22:32:31.298Z,0.08
2023-01-19T22:34:57.742Z,0.10
2023-01-19T22:37:24.209Z,0.13
2023-01-19T22:39:50.829Z,0.14
2023-01-19T22:42:17.233Z,0.16
2023-01-19T22:44:43.719Z,0.18
2023-01-19T22:47:10.172Z,0.18
2023-01-19T22:49:36.769Z,0.19
2023-01-19T22:52:03.420Z,0.18
2023-01-19T22:54:30.234Z,0.18
2023-01-19T22:56:56.635Z,0.16
2023-01-19T22:59:23.106Z,0.14
2023-01-19T23:01:49.893Z,0.15
2023-01-19T23:04:16.407Z,0.18
2023-01-19T23:06:43.320Z,0.19
2023-01-19T23:09:14.123Z,0.20
2023-01-19T23:11:43.121Z,0.20
2023-01-19T23:14:15.122Z,0.21
2023-01-19T23:16:41.653Z,0.19
2023-01-19T23:19:08.236Z,0.20
2023-01-19T23:21:34.750Z,0.21
2023-01-19T23:24:03.515Z,0.20
2023-01-19T23:26:30.839Z,0.15
2023-01-19T23:29:01.670Z,0.12
2023-01-19T23:31:29.460Z,0.08
2023-01-19T23:33:58.006Z,0.04
2023-01-19T23:36:26.774Z,0.02
2023-01-19T23:38:56.099Z,-0.02
2023-01-19T23:41:23.897Z,-0.04
2023-01-19T23:43:51.092Z,-0.06
2023-01-19T23:46:18.812Z,-0.09
2023-01-19T23:48:45.934Z,-0.13
2023-01-19T23:51:15.294Z,-0.11
2023-01-19T23:53:41.829Z,-0.14
2023-01-19T23:56:18.253Z,-0.14
2023-01-19T23:58:46.490Z,-0.18
